createdAt,value
2017-11-23T00:00:39.422Z,95701.52
2017-11-23T00:03:08.348Z,95706.98
2017-11-23T00:05:36.009Z,95706.91
2017-11-23T00:08:03.681Z,95708.05
2017-11-23T00:10:32.265Z,95710.03
2017-11-23T00:12:59.868Z,95705.44
2017-11-23T00:15:29.442Z,95707.23
2017-11-23T00:17:57.095Z,95708.86
2017-11-23T00:20:26.532Z,95706.56
2017-11-23T00:22:54.173Z,95703.39
2017-11-23T00:25:53.177Z,95685.23
2017-11-23T00:28:21.958Z,95708.86
2017-11-23T00:30:50.446Z,95706.34
2017-11-23T00:33:18.130Z,95697.59
2017-11-23T00:35:46.597Z,95703.41
2017-11-23T00:45:03.829Z,95693.72
2017-11-23T00:47:31.639Z,95699.31
2017-11-23T00:49:59.302Z,95704.24
2017-11-23T00:52:26.989Z,95709.69
2017-11-23T00:54:54.611Z,95713.72
2017-11-23T00:57:23.084Z,95707.16
2017-11-23T00:59:50.840Z,95709.16
2017-11-23T01:02:19.911Z,95709.77
2017-11-23T01:04:47.545Z,95712.64
2017-11-23T01:07:15.209Z,95714.73
2017-11-23T01:09:42.940Z,95715.88
2017-11-23T01:12:10.548Z,95719.52
2017-11-23T01:14:38.928Z,95723.28
2017-11-23T01:17:06.570Z,95714.35
2017-11-23T01:19:34.217Z,95721.28
2017-11-23T01:25:02.379Z,95711.40
2017-11-23T01:27:30.040Z,95711.35
2017-11-23T01:29:57.899Z,95706.72
2017-11-23T01:32:25.709Z,95709.39
2017-11-23T01:34:54.304Z,95711.27
2017-11-23T01:37:22.802Z,95705.91
2017-11-23T01:39:50.471Z,95708.06
2017-11-23T01:42:18.186Z,95698.01
2017-11-23T01:44:46.475Z,95701.08
2017-11-23T01:47:15.507Z,95698.89
2017-11-23T01:49:43.271Z,95693.28
2017-11-23T01:52:12.328Z,95700.58
2017-11-23T01:54:42.912Z,95701.66
2017-11-23T01:57:11.473Z,95705.55
2017-11-23T01:59:43.058Z,95713.70
2017-11-23T02:02:10.778Z,95717.20
2017-11-23T02:04:38.436Z,95717.55
2017-11-23T02:07:07.405Z,95716.69
2017-11-23T02:09:35.281Z,95720.05
2017-11-23T02:12:03.014Z,95715.57
2017-11-23T02:14:30.706Z,95721.03
2017-11-23T02:16:58.351Z,95724.39
2017-11-23T02:19:26.688Z,95717.14
2017-11-23T02:21:54.393Z,95715.95
2017-11-23T02:24:22.201Z,95723.20
2017-11-23T02:26:52.170Z,95721.83
2017-11-23T02:29:22.519Z,95689.90
2017-11-23T02:31:55.212Z,95725.41
2017-11-23T02:34:22.899Z,95727.93
2017-11-23T02:36:50.713Z,95728.88
2017-11-23T02:39:18.486Z,95729.10
2017-11-23T02:41:46.874Z,95729.17
2017-11-23T03:16:17.371Z,95740.49
2017-11-23T03:18:45.841Z,95734.79
2017-11-23T03:21:16.988Z,95746.21
2017-11-23T03:23:44.886Z,95753.97
2017-11-23T03:26:12.820Z,95753.78
2017-11-23T03:28:43.778Z,95716.51
2017-11-23T03:31:11.643Z,95753.99
2017-11-23T03:58:14.589Z,95769.86
2017-11-23T04:01:09.469Z,95765.03
2017-11-23T04:10:34.739Z,95765.38
2017-11-23T04:13:02.503Z,95772.98
2017-11-23T04:15:30.110Z,95779.25
2017-11-23T04:17:57.699Z,95782.61
2017-11-23T04:20:25.510Z,95784.67
2017-11-23T04:22:53.133Z,95781.84
2017-11-23T04:25:20.895Z,95788.92
2017-11-23T04:27:48.649Z,95790.30
2017-11-23T04:30:16.292Z,95790.81
2017-11-23T04:32:43.980Z,95793.98
2017-11-23T04:35:17.150Z,95787.89
2017-11-23T04:37:44.967Z,95791.80
2017-11-23T04:40:12.611Z,95789.19
2017-11-23T04:42:49.147Z,95794.75
2017-11-23T04:45:16.862Z,95800.66
2017-11-23T04:58:15.247Z,95808.30
2017-11-23T05:00:43.721Z,95807.59
2017-11-23T05:03:21.977Z,95807.91
2017-11-23T05:05:49.563Z,95822.72
2017-11-23T05:11:42.765Z,95826.70
2017-11-23T05:14:13.106Z,95825.85
2017-11-23T05:16:40.667Z,95828.93
2017-11-23T05:19:09.191Z,95834.59
2017-11-23T05:21:36.797Z,95841.09
2017-11-23T05:24:04.845Z,95833.27
2017-11-23T05:26:32.395Z,95842.33
2017-11-23T05:29:02.747Z,95840.80
2017-11-23T05:31:30.370Z,95845.43
2017-11-23T05:33:57.995Z,95844.17
2017-11-23T05:36:25.539Z,95853.38
2017-11-23T05:38:53.206Z,95846.55
2017-11-23T05:41:20.772Z,95854.01
2017-11-23T05:43:48.543Z,95859.55
2017-11-23T05:46:16.130Z,95863.80
2017-11-23T05:48:43.701Z,95867.05
2017-11-23T05:51:11.239Z,95869.10
2017-11-23T05:53:40.288Z,95872.89
2017-11-23T05:56:07.886Z,95882.05
2017-11-23T05:58:35.444Z,95882.50
2017-11-23T06:01:03.041Z,95880.34
2017-11-23T06:03:30.603Z,95886.88
2017-11-23T06:05:58.166Z,95886.05
2017-11-23T06:08:25.743Z,95878.91
2017-11-23T06:10:53.897Z,95899.31
2017-11-23T06:13:21.697Z,95893.91
2017-11-23T06:15:49.332Z,95891.16
2017-11-23T06:18:17.141Z,95892.88
2017-11-23T06:20:44.805Z,95898.95
2017-11-23T06:23:12.714Z,95893.81
2017-11-23T06:25:40.368Z,95898.98
2017-11-23T06:28:08.588Z,95901.11
2017-11-23T06:30:36.218Z,95906.77
2017-11-23T06:33:03.997Z,95903.47
2017-11-23T06:35:31.647Z,95904.98
2017-11-23T06:37:59.441Z,95907.70
2017-11-23T06:40:27.264Z,95904.66
2017-11-23T06:42:54.904Z,95907.53
2017-11-23T06:45:22.536Z,95897.88
2017-11-23T06:47:50.105Z,95900.53
2017-11-23T06:50:18.480Z,95895.03
2017-11-23T06:52:46.221Z,95899.92
2017-11-23T06:55:13.980Z,95890.19
2017-11-23T06:57:41.507Z,95888.30
2017-11-23T07:00:09.230Z,95900.63
2017-11-23T07:02:36.985Z,95899.34
2017-11-23T07:05:04.748Z,95895.48
2017-11-23T07:07:32.931Z,95895.66
2017-11-23T07:10:00.546Z,95898.36
2017-11-23T07:12:28.358Z,95902.05
2017-11-23T07:14:56.158Z,95905.13
2017-11-23T07:17:23.903Z,95898.61
2017-11-23T07:19:52.355Z,95906.03
2017-11-23T07:22:20.636Z,95902.28
2017-11-23T07:24:48.734Z,95911.20
2017-11-23T07:27:16.551Z,95907.37
2017-11-23T07:29:44.160Z,95903.25
2017-11-23T07:32:11.835Z,95910.94
2017-11-23T07:34:39.456Z,95914.14
2017-11-23T07:37:07.675Z,95915.43
2017-11-23T07:39:35.450Z,95905.86
2017-11-23T07:42:03.106Z,95910.83
2017-11-23T07:44:30.768Z,95916.51
2017-11-23T07:46:58.373Z,95914.91
2017-11-23T07:49:26.136Z,95915.74
2017-11-23T07:51:54.525Z,95921.24
2017-11-23T07:54:22.331Z,95922.86
2017-11-23T07:56:49.857Z,95924.12
2017-11-23T07:59:17.400Z,95924.63
2017-11-23T08:01:46.696Z,95923.55
2017-11-23T08:04:14.276Z,95928.92
2017-11-23T08:06:51.910Z,95931.39
2017-11-23T08:09:19.672Z,95931.89
2017-11-23T08:11:49.160Z,95931.78
2017-11-23T08:14:16.738Z,95931.58
2017-11-23T08:16:44.271Z,95928.27
2017-11-23T08:19:12.108Z,95922.75
2017-11-23T08:21:39.893Z,95925.07
2017-11-23T08:24:07.642Z,95926.72
2017-11-23T08:26:35.699Z,95925.02
2017-11-23T08:29:03.302Z,95934.38
2017-11-23T08:31:32.051Z,95923.59
2017-11-23T08:33:59.596Z,95925.34
2017-11-23T08:36:27.260Z,95920.67
2017-11-23T08:38:54.861Z,95926.34
2017-11-23T08:41:23.149Z,95917.48
2017-11-23T08:43:51.015Z,95928.16
2017-11-23T08:46:18.615Z,95919.94
2017-11-23T08:48:46.367Z,95921.59
2017-11-23T08:51:14.131Z,95909.05
2017-11-23T08:53:41.882Z,95909.48
2017-11-23T08:56:09.756Z,95906.53
2017-11-23T08:58:37.535Z,95896.84
2017-11-23T09:01:05.156Z,95898.86
2017-11-23T09:03:32.709Z,95893.66
2017-11-23T09:06:00.464Z,95888.52
2017-11-23T09:08:28.277Z,95879.95
2017-11-23T09:10:56.081Z,95882.22
2017-11-23T09:13:23.684Z,95866.69
2017-11-23T09:15:51.316Z,95874.98
2017-11-23T09:18:19.111Z,95866.96
2017-11-23T09:20:46.695Z,95860.84
2017-11-23T09:23:14.382Z,95855.09
2017-11-23T09:25:41.998Z,95854.05
2017-11-23T09:28:10.413Z,95851.64
2017-11-23T09:30:38.151Z,95850.55
2017-11-23T09:33:05.941Z,95845.20
2017-11-23T09:35:34.162Z,95843.62
2017-11-23T09:38:01.943Z,95839.98
2017-11-23T09:40:29.934Z,95844.91
2017-11-23T09:42:57.765Z,95835.83
2017-11-23T09:45:25.338Z,95838.58
2017-11-23T09:47:53.849Z,95832.30
2017-11-23T09:50:21.395Z,95830.52
2017-11-23T09:52:49.106Z,95832.05
2017-11-23T09:55:16.938Z,95821.71
2017-11-23T09:57:44.679Z,95827.62
2017-11-23T10:00:12.455Z,95823.73
2017-11-23T10:02:40.861Z,95834.66
2017-11-23T10:05:09.037Z,95827.80
2017-11-23T10:07:36.736Z,95826.88
2017-11-23T10:10:05.351Z,95829.70
2017-11-23T10:12:33.420Z,95825.93
2017-11-23T10:15:01.345Z,95827.02
2017-11-23T10:17:28.879Z,95821.81
2017-11-23T10:19:56.665Z,95823.42
2017-11-23T10:22:24.325Z,95820.41
2017-11-23T10:24:52.141Z,95821.28
2017-11-23T10:27:19.945Z,95814.94
2017-11-23T10:29:47.678Z,95807.30
2017-11-23T10:32:16.186Z,95802.84
2017-11-23T10:34:44.013Z,95803.97
2017-11-23T10:37:11.774Z,95799.16
2017-11-23T10:39:39.478Z,95795.09
2017-11-23T10:42:07.254Z,95796.41
2017-11-23T10:44:35.030Z,95791.98
2017-11-23T10:47:02.826Z,95792.96
2017-11-23T10:49:30.892Z,95785.34
2017-11-23T10:51:58.671Z,95788.69
2017-11-23T10:54:26.266Z,95787.05
2017-11-23T10:56:53.787Z,95787.14
2017-11-23T10:59:21.307Z,95783.77
2017-11-23T11:01:49.582Z,95782.98
2017-11-23T11:04:17.353Z,95776.35
2017-11-23T11:06:45.177Z,95773.17
2017-11-23T11:09:12.799Z,95767.91
2017-11-23T11:11:41.834Z,95777.91
2017-11-23T11:14:09.360Z,95759.05
2017-11-23T11:16:37.111Z,95767.52
2017-11-23T11:19:06.438Z,95766.70
2017-11-23T11:21:34.935Z,95764.18
2017-11-23T11:24:04.052Z,95756.51
2017-11-23T11:26:31.991Z,95758.05
2017-11-23T11:29:01.733Z,95760.70
2017-11-23T11:31:29.480Z,95748.19
2017-11-23T11:33:57.028Z,95750.84
2017-11-23T11:36:24.826Z,95755.23
2017-11-23T11:38:52.421Z,95738.72
2017-11-23T11:41:20.192Z,95749.90
2017-11-23T11:43:47.845Z,95751.48
2017-11-23T11:46:16.133Z,95741.52
2017-11-23T11:48:44.276Z,95757.00
2017-11-23T11:51:12.580Z,95744.89
2017-11-23T11:53:40.399Z,95742.75
2017-11-23T11:56:08.416Z,95741.08
2017-11-23T11:58:35.963Z,95739.90
2017-11-23T12:01:03.642Z,95738.30
2017-11-23T12:03:31.236Z,95739.66
2017-11-23T12:05:58.822Z,95738.80
2017-11-23T12:08:26.538Z,95735.23
2017-11-23T12:10:54.319Z,95730.16
2017-11-23T12:13:22.864Z,95729.31
2017-11-23T12:16:02.152Z,95724.42
2017-11-23T12:18:41.343Z,95730.98
2017-11-23T12:24:11.904Z,95717.64
2017-11-23T12:26:39.509Z,95713.38
2017-11-23T12:29:18.875Z,95719.98
2017-11-23T12:31:46.475Z,95718.48
2017-11-23T12:34:14.058Z,95708.19
2017-11-23T12:36:41.651Z,95716.27
2017-11-23T12:39:09.317Z,95706.16
2017-11-23T12:41:36.914Z,95712.27
2017-11-23T12:44:05.280Z,95703.82
2017-11-23T12:46:33.451Z,95704.09
2017-11-23T12:49:01.043Z,95707.06
2017-11-23T12:51:28.656Z,95706.03
2017-11-23T12:53:56.350Z,95707.67
2017-11-23T12:56:24.006Z,95710.59
2017-11-23T12:58:51.685Z,95713.02
2017-11-23T13:01:19.388Z,95710.80
2017-11-23T13:03:47.082Z,95713.44
2017-11-23T13:06:14.714Z,95708.17
2017-11-23T13:08:42.338Z,95707.72
2017-11-23T13:11:09.895Z,95707.96
2017-11-23T13:13:37.520Z,95712.73
2017-11-23T13:16:05.554Z,95715.33
2017-11-23T13:18:33.400Z,95705.84
2017-11-23T13:21:01.229Z,95713.66
2017-11-23T13:23:28.919Z,95711.88
2017-11-23T13:25:56.547Z,95709.49
2017-11-23T13:28:24.349Z,95709.11
2017-11-23T13:30:51.933Z,95708.97
2017-11-23T13:33:19.498Z,95703.96
2017-11-23T13:35:47.123Z,95707.78
2017-11-23T13:38:14.680Z,95706.92
2017-11-23T13:40:42.301Z,95708.48
2017-11-23T13:43:09.924Z,95698.99
2017-11-23T13:45:37.555Z,95708.44
2017-11-23T13:48:05.195Z,95709.14
2017-11-23T13:50:33.253Z,95712.23
2017-11-23T13:53:01.100Z,95708.95
2017-11-23T13:55:29.075Z,95708.56
2017-11-23T13:57:56.731Z,95713.38
2017-11-23T14:00:24.653Z,95709.30
2017-11-23T14:02:52.253Z,95708.48
2017-11-23T14:05:19.847Z,95703.13
2017-11-23T14:07:48.424Z,95701.16
2017-11-23T14:10:15.969Z,95698.48
2017-11-23T14:12:43.637Z,95689.48
2017-11-23T14:15:11.288Z,95693.36
2017-11-23T14:17:39.315Z,95698.81
2017-11-23T14:20:07.965Z,95706.28
2017-11-23T14:22:35.665Z,95702.84
2017-11-23T14:25:03.248Z,95698.40
2017-11-23T14:27:30.835Z,95703.95
2017-11-23T14:29:58.604Z,95696.42
2017-11-23T14:32:26.975Z,95701.22
2017-11-23T14:34:54.653Z,95700.96
2017-11-23T14:37:22.262Z,95700.78
2017-11-23T14:39:49.871Z,95701.61
2017-11-23T14:42:17.457Z,95699.97
2017-11-23T14:44:45.385Z,95695.09
2017-11-23T14:47:13.197Z,95693.59
2017-11-23T14:49:40.819Z,95700.41
2017-11-23T14:52:08.462Z,95697.28
2017-11-23T14:54:36.523Z,95699.45
2017-11-23T14:57:04.130Z,95690.36
2017-11-23T14:59:32.559Z,95689.84
2017-11-23T15:02:00.241Z,95693.00
2017-11-23T15:04:28.691Z,95698.75
2017-11-23T15:06:56.347Z,95705.13
2017-11-23T15:09:24.076Z,95699.45
2017-11-23T15:11:51.634Z,95706.49
2017-11-23T15:14:19.397Z,95708.73
2017-11-23T15:16:47.136Z,95715.40
2017-11-23T15:19:15.457Z,95713.76
2017-11-23T15:21:43.082Z,95705.46
2017-11-23T15:24:10.855Z,95708.42
2017-11-23T15:26:38.540Z,95708.96
2017-11-23T15:29:06.162Z,95693.28
2017-11-23T15:31:34.222Z,95703.81
2017-11-23T15:34:01.960Z,95717.67
2017-11-23T15:36:29.848Z,95710.80
2017-11-23T15:38:57.650Z,95713.83
2017-11-23T15:41:25.504Z,95709.70
2017-11-23T15:43:53.166Z,95716.06
2017-11-23T15:46:20.936Z,95721.26
2017-11-23T15:48:48.852Z,95717.02
2017-11-23T15:51:16.563Z,95724.28
2017-11-23T15:53:44.378Z,95717.27
2017-11-23T15:56:12.071Z,95727.60
2017-11-23T15:58:41.384Z,95718.22
2017-11-23T16:01:09.071Z,95732.39
2017-11-23T16:03:37.948Z,95731.20
2017-11-23T16:06:05.586Z,95734.91
2017-11-23T16:08:33.235Z,95735.35
2017-11-23T16:11:02.733Z,95731.84
2017-11-23T16:13:31.248Z,95730.95
2017-11-23T16:15:59.545Z,95736.66
2017-11-23T16:18:27.163Z,95742.11
2017-11-23T16:20:54.750Z,95748.04
2017-11-23T16:23:22.558Z,95745.73
2017-11-23T16:25:50.293Z,95750.58
2017-11-23T16:28:17.864Z,95741.70
2017-11-23T16:30:45.826Z,95753.06
2017-11-23T16:33:16.195Z,95751.83
2017-11-23T16:35:43.925Z,95754.58
2017-11-23T16:38:16.231Z,95761.27
2017-11-23T16:40:44.005Z,95760.67
2017-11-23T16:46:36.585Z,95778.52
2017-11-23T16:49:10.088Z,95766.06
2017-11-23T16:51:58.185Z,95766.55
2017-11-23T16:54:31.955Z,95755.63
2017-11-23T16:57:05.984Z,95766.25
2017-11-23T16:59:39.202Z,95773.92
2017-11-23T17:02:15.302Z,95774.14
2017-11-23T17:04:48.968Z,95779.50
2017-11-23T17:07:22.339Z,95789.88
2017-11-23T17:13:01.512Z,95792.59
2017-11-23T17:15:36.416Z,95785.16
2017-11-23T17:31:43.017Z,95791.52
2017-11-23T17:34:10.659Z,95793.87
2017-11-23T17:36:39.506Z,95802.41
2017-11-23T17:39:07.607Z,95792.34
2017-11-23T17:41:35.343Z,95803.42
2017-11-23T17:44:03.016Z,95797.72
2017-11-23T19:34:40.051Z,95803.96
2017-11-23T19:37:07.831Z,95823.55
2017-11-23T19:39:36.046Z,95821.30
2017-11-23T19:42:03.643Z,95821.17
2017-11-23T19:44:31.551Z,95816.39
2017-11-23T19:47:00.542Z,95819.28
2017-11-23T19:49:28.327Z,95817.61
2017-11-23T19:51:56.315Z,95819.58
2017-11-23T19:54:24.031Z,95827.18
2017-11-23T19:56:51.813Z,95824.89
2017-11-23T19:59:19.544Z,95829.33
2017-11-23T20:01:47.638Z,95835.69
2017-11-23T20:04:16.103Z,95829.73
2017-11-23T20:06:43.753Z,95832.66
2017-11-23T20:09:11.501Z,95836.44
2017-11-23T20:11:39.395Z,95843.21
2017-11-23T20:14:08.084Z,95833.25
2017-11-23T20:16:35.824Z,95836.88
2017-11-23T20:19:04.700Z,95833.98
2017-11-23T20:21:32.369Z,95836.41
2017-11-23T20:24:02.463Z,95843.67
2017-11-23T20:26:32.099Z,95848.05
2017-11-23T20:29:00.334Z,95849.15
2017-11-23T20:31:28.981Z,95850.84
2017-11-23T20:33:56.815Z,95856.68
2017-11-23T20:36:24.363Z,95846.13
2017-11-23T20:38:52.022Z,95853.86
2017-11-23T20:41:19.648Z,95854.13
2017-11-23T20:43:47.290Z,95847.47
2017-11-23T20:46:15.004Z,95855.05
2017-11-23T20:48:42.614Z,95851.09
2017-11-23T20:51:16.238Z,95841.67
2017-11-23T20:53:45.991Z,95855.58
2017-11-23T20:56:15.293Z,95847.91
2017-11-23T20:58:43.299Z,95857.09
2017-11-23T21:01:11.002Z,95858.84
2017-11-23T21:03:39.519Z,95860.95
2017-11-23T21:06:07.569Z,95854.21
2017-11-23T21:08:42.758Z,95857.54
2017-11-23T21:11:10.487Z,95854.45
2017-11-23T21:13:48.369Z,95856.36
2017-11-23T21:16:16.230Z,95852.80
2017-11-23T21:18:45.148Z,95869.00
2017-11-23T21:21:13.374Z,95859.17
2017-11-23T21:23:42.777Z,95865.36
2017-11-23T21:26:10.483Z,95870.19
2017-11-23T21:28:39.551Z,95863.23
2017-11-23T21:31:07.283Z,95861.72
2017-11-23T21:33:35.064Z,95862.05
2017-11-23T21:36:02.707Z,95871.02
2017-11-23T21:38:30.371Z,95858.23
2017-11-23T21:41:00.259Z,95860.66
2017-11-23T21:43:27.947Z,95859.24
2017-11-23T21:45:55.957Z,95858.48
2017-11-23T21:48:23.821Z,95871.61
2017-11-23T21:50:51.776Z,95864.16
2017-11-23T21:53:19.864Z,95857.19
2017-11-23T21:55:51.204Z,95855.41
2017-11-23T21:58:18.769Z,95867.80
2017-11-23T22:00:46.318Z,95865.53
2017-11-23T22:03:15.035Z,95866.01
2017-11-23T22:05:43.585Z,95858.28
2017-11-23T22:08:12.160Z,95858.34
2017-11-23T22:10:39.973Z,95855.87
2017-11-23T22:13:07.561Z,95854.91
2017-11-23T22:15:35.262Z,95837.63
2017-11-23T22:18:02.921Z,95852.62
2017-11-23T22:20:31.081Z,95858.41
2017-11-23T22:22:58.933Z,95852.89
2017-11-23T22:25:27.032Z,95862.86
2017-11-23T22:27:54.645Z,95853.22
2017-11-23T22:30:22.407Z,95857.88
2017-11-23T22:32:49.997Z,95851.98
2017-11-23T22:35:18.483Z,95855.67
2017-11-23T22:37:46.991Z,95852.87
2017-11-23T22:40:14.829Z,95848.61
2017-11-23T22:42:42.504Z,95854.06
2017-11-23T22:45:10.093Z,95849.16
2017-11-23T22:47:37.893Z,95848.58
2017-11-23T22:50:05.500Z,95848.19
2017-11-23T22:52:33.148Z,95849.72
2017-11-23T22:55:00.721Z,95850.70
2017-11-23T22:57:28.344Z,95853.23
2017-11-23T22:59:55.985Z,95856.88
2017-11-23T23:02:24.524Z,95852.20
2017-11-23T23:04:52.176Z,95849.21
2017-11-23T23:07:19.976Z,95850.03
2017-11-23T23:09:47.771Z,95847.47
2017-11-23T23:12:15.360Z,95852.53
2017-11-23T23:14:42.917Z,95846.55
2017-11-23T23:17:10.562Z,95848.75
2017-11-23T23:19:38.126Z,95851.52
2017-11-23T23:22:06.033Z,95859.12
2017-11-23T23:24:33.733Z,95857.76
2017-11-23T23:27:01.316Z,95865.00
2017-11-23T23:29:29.148Z,95861.30
2017-11-23T23:31:56.776Z,95858.31
2017-11-23T23:34:24.411Z,95860.45
2017-11-23T23:36:52.001Z,95867.09
2017-11-23T23:39:19.632Z,95866.66
2017-11-23T23:41:47.253Z,95859.81
2017-11-23T23:44:15.073Z,95853.04
2017-11-23T23:46:42.701Z,95865.97
2017-11-23T23:49:11.269Z,95863.31
2017-11-23T23:51:39.485Z,95861.09
2017-11-23T23:54:07.676Z,95862.78
2017-11-23T23:56:35.394Z,95871.08
2017-11-23T23:59:03.751Z,95869.49
